Time;durP1;ratioP1;P1;durP2;ratioP2;P2;SDS_P1;SDS_P2;PMS_P1;PMS_P2;Temp;Humidity;BMP_temperature;BMP_pressure;BME280_temperature;BME280_humidity;BME280_pressure;Samples;Min_cycle;Max_cycle;Signal;HPM_P1;HPM_P2
2023/02/06 00:02:45;;;;;;;10.53;9.50;;;;;;;-6.50;100.00;98976.53;5061465;28;20500;-65
2023/02/06 00:05:39;;;;;;;11.60;9.50;;;;;;;-6.43;100.00;98991.00;5050792;28;20475;-65
2023/02/06 00:08:30;;;;;;;10.30;9.27;;;;;;;-6.42;100.00;98997.03;5030528;28;20605;-66
2023/02/06 00:11:21;;;;;;;9.63;8.50;;;;;;;-6.42;100.00;98999.59;5067038;28;20960;-64
2023/02/06 00:14:13;;;;;;;9.77;8.97;;;;;;;-6.47;100.00;98991.94;5068799;28;21096;-64
2023/02/06 00:17:05;;;;;;;11.60;9.60;;;;;;;-6.43;100.00;99003.91;5050458;28;20452;-64
2023/02/06 00:19:56;;;;;;;9.63;8.83;;;;;;;-6.46;100.00;99008.25;5070842;28;20995;-64
2023/02/06 00:22:50;;;;;;;10.40;9.20;;;;;;;-6.54;100.00;99009.28;5035990;28;20535;-64
2023/02/06 00:25:41;;;;;;;11.80;10.60;;;;;;;-6.52;100.00;99011.84;5060522;28;20550;-64
2023/02/06 00:28:33;;;;;;;12.53;10.67;;;;;;;-6.61;100.00;99024.94;5067266;28;20700;-65
2023/02/06 00:31:24;;;;;;;9.83;8.93;;;;;;;-6.60;100.00;99019.72;5045046;28;20568;-64
2023/02/06 00:34:16;;;;;;;10.73;9.73;;;;;;;-6.62;100.00;99020.66;5051988;28;20487;-64
2023/02/06 00:37:08;;;;;;;11.47;10.40;;;;;;;-6.68;100.00;99017.28;5056713;28;20460;-64
2023/02/06 00:40:02;;;;;;;10.93;9.73;;;;;;;-6.72;100.00;99017.41;5064342;28;21417;-66
2023/02/06 00:42:53;;;;;;;10.70;9.80;;;;;;;-6.78;100.00;99018.34;5065627;28;20460;-65
2023/02/06 00:45:45;;;;;;;11.53;9.50;;;;;;;-6.76;100.00;99015.75;5046357;28;20660;-66
2023/02/06 00:48:37;;;;;;;10.30;9.17;;;;;;;-6.72;100.00;99028.53;5044595;28;20528;-66
2023/02/06 15:47:48;;;;;;;17.20;15.40;;;;;;;-2.04;100.00;98734.56;5073611;28;20292;-63
2023/02/06 15:50:18;;;;;;;17.80;15.90;;;;;;;-2.08;100.00;98733.84;5020374;28;20233;-61
2023/02/06 15:52:47;;;;;;;15.77;14.30;;;;;;;-2.22;100.00;98741.38;5066981;28;20290;-62
2023/02/06 15:55:26;;;;;;;16.70;13.90;;;;;;;-2.22;100.00;98743.97;5026466;28;20598;-62
2023/02/06 15:57:55;;;;;;;16.80;15.20;;;;;;;-2.21;100.00;98730.06;5041940;28;20663;-61
2023/02/06 16:00:24;;;;;;;14.77;13.33;;;;;;;-2.27;100.00;98731.19;5002269;28;20904;-62
2023/02/06 16:02:57;;;;;;;11.70;10.43;;;;;;;-2.36;100.00;98727.22;5046598;28;20203;-62
2023/02/06 16:05:30;;;;;;;11.03;10.00;;;;;;;-2.34;100.00;98730.59;5028637;28;20425;-63
2023/02/06 16:07:58;;;;;;;13.17;11.80;;;;;;;-2.36;100.00;98732.44;5048330;28;20508;-65
2023/02/06 16:10:28;;;;;;;15.97;14.40;;;;;;;-2.35;100.00;98734.13;5041592;28;20253;-64
2023/02/06 16:12:57;;;;;;;19.00;17.10;;;;;;;-2.38;100.00;98735.97;5058675;28;20195;-65
2023/02/06 16:15:29;;;;;;;18.63;16.87;;;;;;;-2.41;100.00;98741.31;5011106;28;20233;-64
2023/02/06 16:18:00;;;;;;;13.87;12.50;;;;;;;-2.45;100.00;98758.78;5048609;28;20198;-65
2023/02/06 16:20:35;;;;;;;15.47;13.13;;;;;;;-2.51;100.00;98746.03;5035922;28;20552;-65
2023/02/06 16:23:21;;;;;;;15.07;13.57;;;;;;;-2.51;100.00;98746.03;5048945;28;20197;-65
2023/02/06 16:25:59;;;;;;;16.70;14.90;;;;;;;-2.47;100.00;98752.78;5036980;28;20202;-65
2023/02/06 16:28:27;;;;;;;14.77;13.17;;;;;;;-2.42;100.00;98750.00;5053198;28;20194;-62
2023/02/06 16:30:56;;;;;;;15.90;12.83;;;;;;;-2.48;100.00;98753.69;5055459;28;20848;-64
2023/02/06 16:33:33;;;;;;;14.60;13.20;;;;;;;-2.48;100.00;98753.69;4984581;28;20562;-64
2023/02/06 16:36:01;;;;;;;15.73;14.23;;;;;;;-2.52;100.00;98762.50;5040994;28;20492;-65
2023/02/06 16:38:28;;;;;;;17.00;15.33;;;;;;;-2.53;100.00;98760.81;5036885;28;20218;-64
2023/02/06 16:40:56;;;;;;;18.03;16.10;;;;;;;-2.51;100.00;98759.00;5036223;28;20218;-65
2023/02/06 16:43:26;;;;;;;17.80;16.20;;;;;;;-2.50;100.00;98760.69;5053674;28;20202;-66
2023/02/06 16:45:53;;;;;;;16.57;14.87;;;;;;;-2.51;100.00;98761.59;5031689;28;20818;-62
2023/02/06 16:48:21;;;;;;;18.97;17.10;;;;;;;-2.59;100.00;98768.84;5015297;28;20260;-63
2023/02/06 16:50:50;;;;;;;20.07;15.73;;;;;;;-2.65;100.00;98772.56;5038315;28;20866;-65
2023/02/06 16:53:21;;;;;;;20.60;18.42;;;;;;;-2.69;100.00;98781.34;5050238;28;20449;-63
2023/02/06 16:55:49;;;;;;;19.07;16.57;;;;;;;-2.73;100.00;98787.56;5052195;28;20248;-64
2023/02/06 16:58:19;;;;;;;18.07;16.27;;;;;;;-2.75;100.00;98790.25;5054518;28;20215;-61
2023/02/06 17:00:47;;;;;;;24.10;18.70;;;;;;;-2.78;100.00;98796.38;5076822;28;20218;-62
2023/02/06 17:03:16;;;;;;;22.40;20.10;;;;;;;-2.74;100.00;98789.34;5035364;28;20884;-61
2023/02/06 17:05:44;;;;;;;37.53;31.73;;;;;;;-2.75;100.00;98792.84;5074011;28;20194;-65
2023/02/06 17:08:18;;;;;;;26.47;23.40;;;;;;;-2.69;100.00;98799.50;5052614;28;20214;-62
2023/02/06 17:10:46;;;;;;;65.97;47.03;;;;;;;-2.75;100.00;98811.00;5055170;28;20214;-61
2023/02/06 17:13:15;;;;;;;54.43;42.30;;;;;;;-2.74;100.00;98812.69;5056963;28;20209;-64
2023/02/06 17:15:43;;;;;;;32.25;28.98;;;;;;;-2.80;100.00;98811.16;5063552;28;21191;-64
2023/02/06 17:18:12;;;;;;;30.58;27.45;;;;;;;-2.79;100.00;98817.22;5034337;28;20432;-63
2023/02/06 17:20:41;;;;;;;38.70;31.90;;;;;;;-2.80;100.00;98815.53;5076122;28;20214;-64
2023/02/06 17:23:09;;;;;;;30.20;25.77;;;;;;;-2.76;100.00;98817.09;5048838;28;20206;-64
2023/02/06 17:25:39;;;;;;;26.00;22.63;;;;;;;-2.84;100.00;98819.97;5050542;28;20365;-62
2023/02/06 17:28:07;;;;;;;24.00;20.43;;;;;;;-2.87;100.00;98824.41;5066718;28;20207;-62
2023/02/06 17:30:36;;;;;;;26.37;23.17;;;;;;;-2.94;100.00;98821.25;5049779;28;20244;-63
2023/02/06 17:33:05;;;;;;;28.83;23.53;;;;;;;-2.89;100.00;98831.41;5074623;28;20705;-64
2023/02/06 17:35:35;;;;;;;21.50;18.53;;;;;;;-2.81;100.00;98821.63;5035184;28;20215;-61
2023/02/06 17:38:03;;;;;;;23.80;20.10;;;;;;;-2.91;100.00;98828.91;5066987;28;20208;-64
2023/02/06 17:40:33;;;;;;;23.13;20.77;;;;;;;-2.87;100.00;98840.00;5041437;28;20221;-64
2023/02/06 17:43:04;;;;;;;20.90;18.67;;;;;;;-2.89;100.00;98844.38;5055293;28;20213;-68
2023/02/06 17:45:32;;;;;;;23.67;19.93;;;;;;;-2.91;100.00;98840.09;5049786;28;20217;-65
2023/02/06 17:48:00;;;;;;;18.30;16.33;;;;;;;-2.84;100.00;98850.25;5057826;28;20210;-65
2023/02/06 17:50:28;;;;;;;18.67;16.30;;;;;;;-2.82;100.00;98843.28;5033745;28;20230;-65
2023/02/06 17:52:58;;;;;;;19.30;17.33;;;;;;;-2.84;100.00;98847.66;5073301;28;20680;-66
2023/02/06 17:55:27;;;;;;;21.20;19.00;;;;;;;-2.94;100.00;98840.22;5040305;28;20848;-64
2023/02/06 17:57:55;;;;;;;19.77;17.77;;;;;;;-3.03;100.00;98856.13;4995138;28;20231;-65
2023/02/06 18:00:25;;;;;;;28.33;24.03;;;;;;;-3.08;100.00;98837.31;5038973;28;20234;-66
2023/02/06 18:02:54;;;;;;;26.23;23.37;;;;;;;-3.05;100.00;98856.19;5021343;28;20214;-67
2023/02/06 18:05:22;;;;;;;23.57;21.07;;;;;;;-3.11;100.00;98864.19;5016438;28;20217;-65
2023/02/06 18:07:50;;;;;;;22.87;19.87;;;;;;;-3.24;100.00;98865.56;5042937;28;20219;-65
2023/02/06 18:10:19;;;;;;;24.43;21.90;;;;;;;-3.38;100.00;98858.28;5032635;28;20927;-66
2023/02/06 18:12:47;;;;;;;20.63;18.60;;;;;;;-3.54;100.00;98850.19;5035910;28;20205;-66
2023/02/06 18:15:15;;;;;;;16.77;14.97;;;;;;;-3.74;100.00;98845.69;5052699;28;20195;-64
2023/02/06 18:17:44;;;;;;;16.53;14.90;;;;;;;-3.88;100.00;98843.59;5037179;28;20233;-66
2023/02/06 18:20:12;;;;;;;17.53;15.73;;;;;;;-3.96;100.00;98830.91;5036303;28;20210;-65
2023/02/06 18:22:40;;;;;;;16.10;14.50;;;;;;;-4.03;100.00;98839.75;5008931;28;20211;-64
2023/02/06 18:25:09;;;;;;;15.07;13.47;;;;;;;-4.15;100.00;98839.28;5044396;28;20190;-64
2023/02/06 18:27:38;;;;;;;17.83;15.27;;;;;;;-4.19;100.00;98837.69;5027213;28;20211;-64
2023/02/06 18:30:06;;;;;;;15.57;12.80;;;;;;;-4.23;100.00;98844.69;5020655;28;21452;-63
2023/02/06 18:32:35;;;;;;;14.30;12.80;;;;;;;-4.25;100.00;98836.13;5039484;28;20198;-62
2023/02/06 18:35:05;;;;;;;13.67;12.00;;;;;;;-4.38;100.00;98835.69;5026473;28;20199;-64
2023/02/06 18:37:33;;;;;;;12.50;11.23;;;;;;;-4.41;100.00;98848.72;5004119;28;21437;-64
2023/02/06 18:40:01;;;;;;;14.50;13.07;;;;;;;-4.48;100.00;98833.47;5049536;28;20295;-64
2023/02/06 18:45:14;;;;;;;13.97;12.17;;;;;;;-4.69;100.00;98852.19;5052046;28;20707;-64
2023/02/06 18:47:42;;;;;;;13.63;12.37;;;;;;;-4.78;100.00;98861.97;5041844;28;20213;-63
2023/02/06 18:50:11;;;;;;;11.57;10.47;;;;;;;-4.90;100.00;98843.34;5034337;28;21910;-64
2023/02/06 18:52:39;;;;;;;12.70;11.00;;;;;;;-4.75;100.00;98864.47;5005851;28;20217;-65
2023/02/06 18:55:08;;;;;;;12.23;11.10;;;;;;;-4.82;100.00;98869.81;5054373;28;20207;-65
2023/02/06 18:57:35;;;;;;;10.93;9.93;;;;;;;-4.75;100.00;98864.47;5034708;28;21359;-65
2023/02/06 19:00:05;;;;;;;11.57;10.30;;;;;;;-4.74;100.00;98863.56;5047848;28;20610;-64
2023/02/06 19:02:32;;;;;;;11.40;10.30;;;;;;;-4.81;100.00;98857.72;5048397;28;20203;-64
2023/02/06 19:05:00;;;;;;;10.60;9.57;;;;;;;-4.90;100.00;98850.25;5020825;28;20993;-66
2023/02/06 19:07:29;;;;;;;14.70;13.13;;;;;;;-4.97;100.00;98853.00;5008101;28;20249;-64
2023/02/06 19:09:57;;;;;;;15.23;13.27;;;;;;;-4.90;100.00;98860.59;5058811;28;20860;-64
2023/02/06 19:12:26;;;;;;;12.10;11.00;;;;;;;-4.95;100.00;98855.53;5055660;28;20445;-66
2023/02/06 19:14:54;;;;;;;13.10;11.67;;;;;;;-4.95;100.00;98863.28;5036904;28;20214;-66
2023/02/06 19:17:23;;;;;;;11.97;10.60;;;;;;;-4.94;100.00;98867.56;5046033;28;21360;-65
2023/02/06 19:19:50;;;;;;;11.83;10.70;;;;;;;-4.88;100.00;98866.56;5033164;28;20480;-64
2023/02/06 19:22:18;;;;;;;13.50;11.20;;;;;;;-4.99;100.00;98872.91;5034358;28;20241;-65
2023/02/06 19:24:49;;;;;;;10.93;9.83;;;;;;;-5.06;100.00;98867.94;5009485;28;20202;-65
2023/02/06 19:27:17;;;;;;;12.23;11.03;;;;;;;-5.12;100.00;98869.81;5046685;28;20536;-65
2023/02/06 19:29:45;;;;;;;13.07;11.47;;;;;;;-5.11;100.00;98865.50;5031519;28;20203;-65
2023/02/06 19:32:12;;;;;;;14.87;13.37;;;;;;;-5.08;100.00;98868.00;5051612;28;20825;-66
2023/02/06 19:34:41;;;;;;;13.13;11.50;;;;;;;-4.98;100.00;98872.00;5042257;28;20446;-65
2023/02/06 19:37:10;;;;;;;14.00;11.80;;;;;;;-4.83;100.00;98867.25;5035996;28;20246;-64
2023/02/06 19:39:39;;;;;;;12.93;11.23;;;;;;;-4.84;100.00;98855.22;5014265;28;20967;-65
2023/02/06 19:42:10;;;;;;;11.43;10.43;;;;;;;-4.84;100.00;98863.84;5058603;28;20547;-65
2023/02/06 19:44:37;;;;;;;12.50;10.77;;;;;;;-4.80;100.00;98867.16;5040881;28;20201;-65
2023/02/06 19:47:05;;;;;;;14.03;11.80;;;;;;;-4.82;100.00;98866.38;5052497;28;20850;-66
2023/02/06 19:49:33;;;;;;;25.27;20.53;;;;;;;-4.85;100.00;98864.75;5047906;28;20209;-65
2023/02/06 19:52:01;;;;;;;11.87;10.77;;;;;;;-4.81;100.00;98866.34;5055101;28;20230;-65
2023/02/06 19:54:28;;;;;;;15.63;12.90;;;;;;;-4.84;100.00;98858.69;5006418;28;20220;-66
2023/02/06 19:56:56;;;;;;;13.00;11.73;;;;;;;-4.98;100.00;98853.06;5068725;28;20202;-65
2023/02/06 19:59:27;;;;;;;13.83;12.40;;;;;;;-4.96;100.00;98854.72;5065693;28;20479;-65
2023/02/06 20:01:56;;;;;;;13.00;11.67;;;;;;;-4.85;100.00;98863.88;5058606;28;20236;-64
2023/02/06 20:04:26;;;;;;;12.70;11.40;;;;;;;-4.97;100.00;98865.09;5058025;28;20206;-65
2023/02/06 20:06:54;;;;;;;14.77;11.30;;;;;;;-5.13;100.00;98865.53;5065769;28;20209;-65
2023/02/06 20:09:23;;;;;;;12.60;11.30;;;;;;;-5.29;100.00;98857.38;5055773;28;20632;-65
2023/02/06 20:11:50;;;;;;;11.70;10.57;;;;;;;-5.23;100.00;98870.13;5043394;28;20471;-63
2023/02/06 20:14:19;;;;;;;12.67;11.10;;;;;;;-5.29;100.00;98880.63;5070616;28;20229;-64
2023/02/06 20:16:48;;;;;;;12.20;10.83;;;;;;;-5.35;100.00;98875.63;5044779;28;20203;-64
2023/02/06 20:19:17;;;;;;;12.87;11.57;;;;;;;-5.41;100.00;98878.38;5072655;28;20310;-64
2023/02/06 20:21:46;;;;;;;14.60;12.70;;;;;;;-5.54;100.00;98889.03;5051290;28;20476;-65
2023/02/06 20:24:17;;;;;;;14.83;12.40;;;;;;;-5.59;100.00;98882.31;5058243;28;21392;-65
2023/02/06 20:26:45;;;;;;;13.73;12.23;;;;;;;-5.56;100.00;98890.81;4994962;28;20470;-65
2023/02/06 20:29:19;;;;;;;24.47;20.50;;;;;;;-5.56;100.00;98895.97;5061988;28;20191;-65
2023/02/06 20:31:48;;;;;;;16.93;14.77;;;;;;;-5.56;100.00;98908.91;5050506;28;20223;-65
2023/02/06 20:34:17;;;;;;;14.50;12.97;;;;;;;-5.58;100.00;98896.94;5057231;28;20221;-64
2023/02/06 20:36:46;;;;;;;15.90;13.67;;;;;;;-5.63;100.00;98896.19;5051918;28;20664;-67
2023/02/06 20:39:14;;;;;;;21.33;16.73;;;;;;;-5.67;100.00;98898.00;5059866;28;20783;-66
2023/02/06 20:41:44;;;;;;;14.90;13.40;;;;;;;-5.67;100.00;98895.41;4995676;28;20481;-65
2023/02/06 20:44:13;;;;;;;16.40;14.77;;;;;;;-5.68;100.00;98904.06;5062466;28;20451;-66
2023/02/06 20:46:41;;;;;;;16.23;14.43;;;;;;;-5.84;100.00;98909.63;5029062;28;20452;-66
2023/02/06 20:49:13;;;;;;;26.87;18.30;;;;;;;-5.96;100.00;98899.59;5039440;28;20676;-66
2023/02/06 20:51:41;;;;;;;27.80;21.17;;;;;;;-6.00;100.00;98901.41;5064341;28;20814;-66
2023/02/06 20:54:10;;;;;;;20.43;17.63;;;;;;;-6.01;100.00;98907.50;5067856;28;20605;-67
2023/02/06 20:56:38;;;;;;;25.80;20.73;;;;;;;-6.06;100.00;98919.66;5005695;28;20646;-66
2023/02/06 20:59:06;;;;;;;29.47;22.77;;;;;;;-6.06;100.00;98911.06;5067921;28;20241;-66
2023/02/06 21:01:34;;;;;;;45.43;28.60;;;;;;;-6.14;100.00;98908.66;5048079;28;21090;-68
2023/02/06 21:04:04;;;;;;;48.73;32.20;;;;;;;-6.22;100.00;98910.56;5028481;28;20514;-66
2023/02/06 21:06:33;;;;;;;47.43;30.30;;;;;;;-6.36;100.00;98908.31;5065647;28;20723;-66
2023/02/06 21:09:02;;;;;;;29.47;21.30;;;;;;;-6.49;100.00;98895.69;5070000;28;20452;-67
2023/02/06 21:11:30;;;;;;;28.20;22.40;;;;;;;-6.44;100.00;98904.19;5021719;28;20472;-64
2023/02/06 21:14:00;;;;;;;27.70;22.23;;;;;;;-6.49;100.00;98915.47;5068723;28;20772;-66
2023/02/06 21:16:29;;;;;;;26.07;19.90;;;;;;;-6.49;100.00;98910.31;5046335;28;20457;-65
2023/02/06 21:18:57;;;;;;;20.83;18.13;;;;;;;-6.58;100.00;98904.50;5048765;28;20476;-66
2023/02/06 21:21:25;;;;;;;23.80;17.97;;;;;;;-6.51;100.00;98922.41;5063589;28;20468;-65
2023/02/06 21:23:55;;;;;;;28.73;23.13;;;;;;;-6.52;100.00;98925.84;5071870;28;20432;-67
2023/02/06 21:26:23;;;;;;;22.97;18.50;;;;;;;-6.61;100.00;98925.19;5070167;28;20632;-65
2023/02/06 21:28:51;;;;;;;21.67;17.93;;;;;;;-6.62;100.00;98925.25;5026116;28;20437;-65
2023/02/06 21:31:20;;;;;;;17.43;14.07;;;;;;;-6.63;100.00;98914.06;5066124;28;20472;-63
2023/02/06 21:33:50;;;;;;;16.03;14.40;;;;;;;-6.66;100.00;98918.41;5035012;28;21044;-64
2023/02/06 21:36:19;;;;;;;26.83;16.97;;;;;;;-6.64;100.00;98919.22;5063388;28;20490;-66
2023/02/06 21:38:47;;;;;;;21.07;17.13;;;;;;;-6.71;100.00;98921.13;5065866;28;21065;-67
2023/02/06 21:41:17;;;;;;;16.50;14.90;;;;;;;-6.73;100.00;98931.44;5068666;28;20572;-66
2023/02/06 21:43:45;;;;;;;17.97;15.77;;;;;;;-6.81;100.00;98924.78;5023270;28;23108;-65
2023/02/06 21:46:13;;;;;;;17.63;15.50;;;;;;;-6.77;100.00;98937.56;5066761;28;20463;-64
2023/02/06 21:48:41;;;;;;;16.87;14.47;;;;;;;-6.89;100.00;98928.34;5031902;28;20352;-66
2023/02/06 21:51:10;;;;;;;17.20;14.40;;;;;;;-6.83;100.00;98953.16;5066105;28;20499;-64
2023/02/06 21:53:38;;;;;;;16.83;13.83;;;;;;;-6.81;100.00;98963.44;5067675;28;20724;-65
2023/02/06 21:56:06;;;;;;;17.27;15.17;;;;;;;-6.74;100.00;98970.16;5052320;28;20466;-65
2023/02/06 21:58:35;;;;;;;14.43;12.50;;;;;;;-6.73;100.00;98962.38;5046472;28;20796;-65
2023/02/06 22:01:05;;;;;;;16.37;12.90;;;;;;;-6.72;100.00;98971.00;4998521;28;20473;-63
2023/02/06 22:03:35;;;;;;;18.93;12.43;;;;;;;-6.66;100.00;98970.84;5028618;28;20466;-64
2023/02/06 22:06:07;;;;;;;13.73;11.47;;;;;;;-6.72;100.00;98979.56;5028049;28;21051;-65
2023/02/06 22:08:35;;;;;;;12.30;10.67;;;;;;;-6.82;100.00;98980.63;5040498;28;21101;-65
2023/02/06 22:11:10;;;;;;;16.17;14.47;;;;;;;-6.83;100.00;98990.06;5045048;28;20781;-64
2023/02/06 22:13:39;;;;;;;14.83;13.30;;;;;;;-6.88;100.00;98989.31;5045739;28;20437;-65
2023/02/06 22:16:08;;;;;;;14.30;12.80;;;;;;;-6.89;100.00;98989.38;4995635;28;20462;-63
2023/02/06 22:18:36;;;;;;;14.57;13.03;;;;;;;-6.88;100.00;98988.50;5017526;28;20508;-65
2023/02/06 22:21:05;;;;;;;17.10;13.90;;;;;;;-6.80;100.00;98993.50;5027526;28;20477;-66
2023/02/06 22:23:33;;;;;;;15.33;13.83;;;;;;;-6.73;100.00;98995.91;5027227;28;20825;-64
2023/02/06 22:26:00;;;;;;;15.13;13.63;;;;;;;-6.72;100.00;99000.19;5052453;28;20456;-66
2023/02/06 22:28:28;;;;;;;14.50;13.00;;;;;;;-6.67;100.00;99000.09;5042073;28;20540;-66
2023/02/06 22:31:04;;;;;;;14.03;12.60;;;;;;;-6.71;100.00;98995.88;5000376;28;20472;-65
2023/02/06 22:33:32;;;;;;;14.20;12.70;;;;;;;-6.73;100.00;98998.47;5038512;28;20457;-66
2023/02/06 22:35:59;;;;;;;14.73;13.23;;;;;;;-6.64;100.00;99001.75;5009191;28;20486;-68
2023/02/06 22:38:27;;;;;;;14.50;12.13;;;;;;;-6.70;100.00;99007.91;5024434;28;20465;-65
2023/02/06 22:40:59;;;;;;;17.07;14.80;;;;;;;-6.74;100.00;99008.84;5049535;28;20483;-68
2023/02/06 22:43:26;;;;;;;17.10;13.93;;;;;;;-6.89;100.00;99012.56;5045234;28;20460;-66
2023/02/06 22:45:54;;;;;;;17.37;15.17;;;;;;;-7.09;100.00;99015.53;5000266;28;20470;-65
2023/02/06 22:48:23;;;;;;;14.83;13.47;;;;;;;-7.24;100.00;99016.66;5042571;28;20457;-63
2023/02/06 22:50:52;;;;;;;14.83;13.17;;;;;;;-7.37;100.00;99018.56;5023815;28;20473;-65
2023/02/06 22:53:30;;;;;;;16.40;13.03;;;;;;;-7.50;100.00;99020.50;5006477;28;21148;-64
2023/02/06 22:58:43;;;;;;;16.67;13.90;;;;;;;-7.62;100.00;99034.41;5066319;28;20628;-66
2023/02/06 23:01:11;;;;;;;16.63;14.93;;;;;;;-7.73;100.00;99022.56;5060816;28;20488;-66
2023/02/06 23:03:40;;;;;;;16.20;14.33;;;;;;;-7.68;100.00;99048.25;5032059;28;20725;-68
2023/02/06 23:06:10;;;;;;;16.97;14.60;;;;;;;-7.81;100.00;99039.88;5047140;28;20546;-66
2023/02/06 23:08:38;;;;;;;18.93;15.37;;;;;;;-7.76;100.00;99056.09;5027922;28;21395;-67
2023/02/06 23:11:07;;;;;;;18.07;14.80;;;;;;;-7.80;100.00;99062.16;5070104;28;20481;-65
2023/02/06 23:13:35;;;;;;;16.37;14.17;;;;;;;-7.79;100.00;99063.00;5069951;28;20791;-65
2023/02/06 23:16:03;;;;;;;15.07;12.63;;;;;;;-7.78;100.00;99073.28;5061255;28;20983;-65
2023/02/06 23:18:31;;;;;;;17.70;13.20;;;;;;;-7.78;100.00;99077.56;5023932;28;20444;-66
2023/02/06 23:21:02;;;;;;;15.10;13.53;;;;;;;-7.87;100.00;99073.44;5051485;28;20484;-66
2023/02/06 23:23:29;;;;;;;16.67;13.10;;;;;;;-7.89;100.00;99076.00;5032787;28;20463;-64
2023/02/06 23:25:57;;;;;;;15.40;12.83;;;;;;;-7.89;100.00;99083.72;5067420;28;20661;-66
2023/02/06 23:28:26;;;;;;;13.20;11.90;;;;;;;-7.92;100.00;99075.22;5068225;28;20451;-66
2023/02/06 23:30:54;;;;;;;16.57;12.40;;;;;;;-8.06;100.00;99062.53;5065508;28;20472;-67
2023/02/06 23:33:22;;;;;;;24.80;17.93;;;;;;;-8.12;100.00;99058.31;5033017;28;20535;-63
2023/02/06 23:35:50;;;;;;;19.57;14.53;;;;;;;-8.09;100.00;99060.00;5043880;28;20464;-68
2023/02/06 23:38:19;;;;;;;17.10;14.63;;;;;;;-8.06;100.00;99054.81;5063785;28;20543;-65
2023/02/06 23:40:47;;;;;;;15.27;13.73;;;;;;;-8.06;100.00;99026.53;5042193;28;20641;-66
2023/02/06 23:43:15;;;;;;;14.70;12.77;;;;;;;-8.02;100.00;99043.59;5069987;28;20431;-64
2023/02/06 23:45:42;;;;;;;17.00;15.30;;;;;;;-8.05;100.00;99044.50;5058720;28;20698;-65
2023/02/06 23:48:10;;;;;;;18.53;15.37;;;;;;;-8.04;100.00;99053.91;5067818;28;20579;-64
2023/02/06 23:50:38;;;;;;;20.03;16.33;;;;;;;-8.03;100.00;99049.63;5030887;28;20483;-66
2023/02/06 23:53:05;;;;;;;20.70;16.03;;;;;;;-8.05;100.00;99048.81;5045602;28;20963;-64
2023/02/06 23:55:34;;;;;;;24.83;19.10;;;;;;;-8.03;100.00;99053.03;5040566;28;20457;-65
2023/02/06 23:58:02;;;;;;;19.83;15.77;;;;;;;-7.97;100.00;99038.38;5063284;28;20723;-66
